Time;durP1;ratioP1;P1;durP2;ratioP2;P2;SDS_P1;SDS_P2;PMS_P1;PMS_P2;Temp;Humidity;BMP_temperature;BMP_pressure;BME280_temperature;BME280_humidity;BME280_pressure;Samples;Min_cycle;Max_cycle;Signal;HPM_P1;HPM_P2
2023/01/13 00:00:29;;;;;;;29.00;4.75;;;8.30;99.90;;;;;;4959240;28;20061;-83
2023/01/13 00:02:55;;;;;;;24.35;4.32;;;8.20;99.90;;;;;;4950493;28;20405;-83
2023/01/13 00:05:20;;;;;;;31.35;4.60;;;8.20;99.90;;;;;;4958790;28;20050;-83
2023/01/13 00:07:48;;;;;;;24.85;4.90;;;8.10;99.90;;;;;;4973939;28;20053;-82
2023/01/13 00:10:13;;;;;;;19.55;3.92;;;8.10;99.90;;;;;;4972949;28;20088;-84
2023/01/13 00:12:40;;;;;;;17.90;4.32;;;8.00;99.90;;;;;;4988844;28;20046;-84
2023/01/13 00:15:07;;;;;;;30.20;4.65;;;8.00;99.90;;;;;;4950703;28;20048;-83
2023/01/13 00:17:33;;;;;;;31.98;4.82;;;8.00;99.90;;;;;;4988496;28;20050;-83
2023/01/13 00:19:58;;;;;;;23.38;4.05;;;7.90;99.90;;;;;;4959066;28;20057;-83
2023/01/13 00:22:24;;;;;;;29.70;4.47;;;7.90;99.90;;;;;;4975725;28;20058;-86
2023/01/13 00:24:50;;;;;;;28.48;4.72;;;7.90;99.90;;;;;;4957896;28;20134;-83
2023/01/13 00:27:15;;;;;;;36.13;5.13;;;7.80;99.90;;;;;;4971614;28;20055;-84
2023/01/13 00:29:41;;;;;;;29.05;4.57;;;7.80;99.90;;;;;;4925037;28;20393;-84
2023/01/13 00:32:07;;;;;;;31.95;5.57;;;7.80;99.90;;;;;;4975431;28;20058;-82
2023/01/13 00:34:32;;;;;;;26.15;4.10;;;7.80;99.90;;;;;;4971664;28;20061;-86
2023/01/13 00:36:58;;;;;;;21.83;4.57;;;7.70;99.90;;;;;;4975131;28;20467;-83
2023/01/13 00:39:24;;;;;;;28.00;5.35;;;7.70;99.90;;;;;;4955870;28;20135;-84
2023/01/13 00:44:33;;;;;;;33.80;5.72;;;7.60;99.90;;;;;;4959379;28;20137;-83
2023/01/13 00:46:59;;;;;;;34.08;5.72;;;7.50;99.90;;;;;;4998411;28;20093;-83
2023/01/13 00:49:25;;;;;;;35.17;4.90;;;7.50;99.90;;;;;;4955763;28;20058;-82
2023/01/13 00:51:51;;;;;;;37.85;6.05;;;7.50;99.90;;;;;;4958960;28;20488;-83
2023/01/13 00:54:17;;;;;;;40.05;5.22;;;7.40;99.90;;;;;;4974963;28;20054;-83
2023/01/13 00:56:43;;;;;;;39.78;6.03;;;7.40;99.90;;;;;;4973633;28;20122;-84
2023/01/13 00:59:13;;;;;;;34.42;5.60;;;7.40;99.90;;;;;;4955488;28;20125;-84
2023/01/13 01:01:40;;;;;;;35.15;5.75;;;7.40;99.90;;;;;;4954040;28;20065;-83
2023/01/13 01:04:06;;;;;;;36.47;6.45;;;7.40;99.90;;;;;;4990092;28;20050;-85
2023/01/13 01:06:31;;;;;;;37.97;7.15;;;7.40;99.90;;;;;;4973352;28;20034;-86
2023/01/13 01:08:57;;;;;;;42.35;7.63;;;7.40;99.90;;;;;;4966859;28;20069;-83
2023/01/13 01:11:27;;;;;;;48.40;6.18;;;7.40;99.90;;;;;;4969138;28;20050;-84
2023/01/13 01:13:55;;;;;;;30.65;5.00;;;7.40;99.90;;;;;;4980647;28;20811;-84
2023/01/13 01:16:23;;;;;;;43.30;6.07;;;7.30;99.90;;;;;;4985267;28;20047;-84
2023/01/13 01:18:50;;;;;;;42.55;5.97;;;7.40;99.90;;;;;;4988060;28;20039;-85
2023/01/13 01:21:17;;;;;;;33.67;5.28;;;7.30;99.90;;;;;;4972808;28;20080;-84
2023/01/13 01:23:46;;;;;;;41.58;5.35;;;7.30;99.90;;;;;;4984371;28;20663;-83
2023/01/13 01:26:17;;;;;;;41.63;6.05;;;7.30;99.90;;;;;;4973325;28;20049;-84
2023/01/13 01:28:43;;;;;;;36.50;6.45;;;7.30;99.90;;;;;;4972092;28;20385;-84
2023/01/13 01:31:14;;;;;;;46.53;6.35;;;7.30;99.90;;;;;;4973444;28;20097;-83
2023/01/13 01:33:40;;;;;;;33.83;5.63;;;7.30;99.90;;;;;;4987339;28;20050;-84
2023/01/13 01:36:07;;;;;;;28.38;4.95;;;7.30;99.90;;;;;;4970165;28;20050;-83
2023/01/13 01:38:33;;;;;;;37.10;5.75;;;7.30;99.90;;;;;;4973894;28;20046;-83
2023/01/13 01:40:59;;;;;;;33.33;6.35;;;7.30;99.90;;;;;;4974836;28;20461;-84
2023/01/13 01:43:58;;;;;;;32.42;4.28;;;7.30;99.90;;;;;;4993304;28;20046;-83
2023/01/13 01:46:33;;;;;;;22.83;4.28;;;7.20;99.90;;;;;;4970682;28;20050;-84
2023/01/13 01:49:16;;;;;;;25.75;4.43;;;7.20;99.90;;;;;;4984261;28;20135;-82
2023/01/13 01:51:54;;;;;;;34.58;4.38;;;7.30;99.90;;;;;;4966304;28;20485;-83
2023/01/13 01:54:24;;;;;;;26.98;4.45;;;7.20;99.90;;;;;;4973471;28;20054;-83
2023/01/13 01:56:50;;;;;;;25.40;4.55;;;7.30;99.90;;;;;;4986807;28;20046;-82
2023/01/13 01:59:17;;;;;;;26.80;4.43;;;7.30;99.90;;;;;;4988788;28;20053;-81
2023/01/13 02:01:44;;;;;;;32.50;4.47;;;7.30;99.90;;;;;;4987142;28;20069;-82
2023/01/13 02:04:24;;;;;;;30.83;5.55;;;7.40;99.90;;;;;;4953933;28;20078;-82
2023/01/13 02:06:52;;;;;;;30.20;5.57;;;7.30;99.90;;;;;;4967301;28;20050;-83
2023/01/13 02:09:17;;;;;;;32.63;4.57;;;7.30;99.90;;;;;;4990306;28;20054;-83
2023/01/13 02:14:29;;;;;;;26.60;4.63;;;7.30;99.90;;;;;;4959701;28;20054;-82
2023/01/13 02:17:17;;;;;;;27.58;4.63;;;7.30;99.90;;;;;;4988499;28;20447;-81
2023/01/13 02:20:17;;;;;;;27.60;4.65;;;7.30;99.90;;;;;;4973066;28;20077;-85
2023/01/13 02:22:49;;;;;;;23.75;4.40;;;7.30;99.90;;;;;;4963435;28;20050;-85
2023/01/13 02:25:17;;;;;;;36.58;5.53;;;7.30;99.90;;;;;;4993045;28;20038;-84
2023/01/13 02:28:01;;;;;;;25.20;4.25;;;7.40;99.90;;;;;;4976910;28;20081;-86
2023/01/13 02:33:40;;;;;;;31.08;4.68;;;7.50;99.90;;;;;;4978141;28;20107;-83
2023/01/13 02:36:16;;;;;;;34.30;4.95;;;7.50;99.90;;;;;;4975780;28;20057;-84
2023/01/13 02:38:57;;;;;;;36.30;4.78;;;7.40;99.90;;;;;;4965201;28;20131;-83
2023/01/13 02:44:30;;;;;;;31.10;5.13;;;7.30;99.90;;;;;;4987402;28;20503;-83
2023/01/13 02:47:26;;;;;;;29.67;5.30;;;7.30;99.90;;;;;;4963949;28;20046;-83
2023/01/13 02:50:02;;;;;;;34.40;4.68;;;7.30;99.90;;;;;;4969646;28;20104;-82
2023/01/13 02:52:40;;;;;;;28.90;4.57;;;7.30;99.90;;;;;;4972447;28;20144;-84
2023/01/13 02:55:11;;;;;;;32.03;4.40;;;7.30;99.90;;;;;;4974204;28;20113;-81
2023/01/13 02:57:38;;;;;;;30.10;4.93;;;7.20;99.90;;;;;;4992966;28;20507;-81
2023/01/13 03:00:07;;;;;;;31.55;4.88;;;7.10;99.90;;;;;;4970140;28;20096;-81
2023/01/13 03:02:33;;;;;;;27.70;4.75;;;7.10;99.90;;;;;;4971555;28;20514;-82
2023/01/13 03:04:59;;;;;;;31.98;5.63;;;7.10;99.90;;;;;;4957981;28;20050;-83
2023/01/13 03:07:54;;;;;;;33.28;6.57;;;7.20;99.90;;;;;;4993135;28;20050;-81
2023/01/13 03:10:49;;;;;;;34.33;5.72;;;7.30;99.90;;;;;;4978331;28;20501;-82
2023/01/13 03:13:47;;;;;;;39.80;6.07;;;7.20;99.90;;;;;;4943446;28;20101;-82
2023/01/13 03:16:58;;;;;;;34.38;5.57;;;7.20;99.90;;;;;;4973680;28;20046;-83
2023/01/13 03:19:34;;;;;;;28.50;5.88;;;7.10;99.90;;;;;;4988001;28;20058;-82
2023/01/13 03:22:07;;;;;;;25.67;4.28;;;7.10;99.90;;;;;;4975468;28;20093;-82
2023/01/13 03:24:40;;;;;;;41.50;7.00;;;7.10;99.90;;;;;;4969771;28;20054;-83
2023/01/13 03:27:11;;;;;;;37.35;4.47;;;7.10;99.90;;;;;;4967245;28;20042;-82
2023/01/13 03:30:02;;;;;;;29.90;4.80;;;7.10;99.90;;;;;;4968607;28;20058;-82
2023/01/13 03:32:44;;;;;;;30.60;4.60;;;7.10;99.90;;;;;;4990081;28;20193;-84
2023/01/13 03:35:36;;;;;;;34.17;5.93;;;7.20;99.90;;;;;;4989446;28;20405;-83
2023/01/13 03:38:13;;;;;;;34.10;5.40;;;7.20;99.90;;;;;;4988359;28;20145;-83
2023/01/13 03:40:51;;;;;;;34.78;5.32;;;7.20;99.90;;;;;;4965558;28;20046;-82
2023/01/13 03:46:19;;;;;;;32.90;5.35;;;7.20;99.90;;;;;;4977059;28;20054;-83
2023/01/13 03:48:47;;;;;;;32.85;4.80;;;7.20;99.90;;;;;;4975304;28;20050;-84
2023/01/13 03:51:19;;;;;;;34.45;4.55;;;7.30;99.90;;;;;;4990353;28;20046;-84
2023/01/13 03:53:59;;;;;;;41.13;5.13;;;7.20;99.90;;;;;;4979961;28;20101;-86
2023/01/13 03:56:53;;;;;;;33.92;5.63;;;7.30;99.90;;;;;;4988093;28;20068;-83
2023/01/13 03:59:28;;;;;;;33.67;5.47;;;7.30;99.90;;;;;;4972896;28;20047;-84
2023/01/13 04:02:01;;;;;;;32.72;5.82;;;7.30;99.90;;;;;;4966004;28;20055;-82
2023/01/13 04:04:35;;;;;;;45.15;6.60;;;7.30;99.90;;;;;;4972533;28;20050;-82
2023/01/13 04:07:15;;;;;;;28.25;4.35;;;7.30;99.90;;;;;;4966308;28;20089;-82
2023/01/13 04:09:54;;;;;;;30.90;6.22;;;7.50;99.90;;;;;;4961700;28;20050;-82
2023/01/13 04:12:59;;;;;;;28.27;4.63;;;7.50;99.90;;;;;;4973603;28;20100;-85
2023/01/13 04:15:19;;;;;;;34.03;5.50;;;7.50;99.90;;;;;;4973890;28;20051;-82
2023/01/13 04:17:45;;;;;;;29.65;6.22;;;7.50;99.90;;;;;;4972501;28;20404;-82
2023/01/13 04:20:11;;;;;;;31.35;4.38;;;7.50;99.90;;;;;;4957499;28;20057;-82
2023/01/13 04:22:36;;;;;;;35.50;4.75;;;7.50;99.90;;;;;;4972158;28;20046;-83
2023/01/13 04:25:02;;;;;;;39.83;4.72;;;7.50;99.90;;;;;;4956376;28;20108;-84
2023/01/13 04:27:28;;;;;;;31.95;5.30;;;7.40;99.90;;;;;;4988880;28;20057;-83
2023/01/13 04:29:57;;;;;;;33.70;5.13;;;7.30;99.90;;;;;;4955724;28;20065;-83
2023/01/13 04:32:22;;;;;;;34.33;5.82;;;7.30;99.90;;;;;;4971845;28;20050;-83
2023/01/13 04:34:48;;;;;;;31.80;5.13;;;7.30;99.90;;;;;;4972558;28;20379;-84
2023/01/13 04:37:14;;;;;;;34.53;5.47;;;7.30;99.90;;;;;;4989532;28;20046;-83
2023/01/13 04:39:39;;;;;;;30.73;4.90;;;7.30;99.90;;;;;;4973648;28;20129;-83
2023/01/13 04:42:05;;;;;;;42.63;5.78;;;7.30;99.90;;;;;;4966433;28;20118;-83
2023/01/13 04:44:34;;;;;;;36.03;5.10;;;7.30;99.90;;;;;;4943247;28;20112;-83
2023/01/13 04:47:01;;;;;;;32.10;6.20;;;7.30;99.90;;;;;;4943774;28;20074;-84
2023/01/13 04:49:27;;;;;;;37.03;5.93;;;7.30;99.90;;;;;;4989849;28;20050;-83
2023/01/13 04:51:53;;;;;;;36.95;5.30;;;7.30;99.90;;;;;;4987097;28;20057;-83
2023/01/13 04:54:19;;;;;;;34.13;6.15;;;7.30;99.90;;;;;;4954911;28;20404;-84
2023/01/13 04:56:45;;;;;;;41.50;6.25;;;7.20;99.90;;;;;;4969483;28;20050;-83
2023/01/13 04:59:11;;;;;;;33.60;5.35;;;7.30;99.90;;;;;;4970997;28;20050;-83
2023/01/13 05:01:38;;;;;;;37.60;6.00;;;7.30;99.90;;;;;;5000040;28;20089;-83
2023/01/13 05:04:04;;;;;;;34.65;6.13;;;7.30;99.90;;;;;;4993288;28;20062;-86
2023/01/13 05:06:30;;;;;;;34.15;6.18;;;7.40;99.90;;;;;;4977760;28;20046;-82
2023/01/13 05:08:56;;;;;;;34.63;5.47;;;7.50;99.90;;;;;;4989893;28;20057;-82
2023/01/13 05:17:00;;;;;;;37.95;6.60;;;7.50;99.90;;;;;;4977159;28;20046;-83
2023/01/13 05:19:38;;;;;;;33.05;5.30;;;7.60;99.90;;;;;;4991701;28;20046;-81
2023/01/13 05:27:32;;;;;;;28.45;5.93;;;7.60;99.90;;;;;;4991046;28;20061;-82
2023/01/13 05:29:58;;;;;;;45.08;5.60;;;7.50;99.90;;;;;;4963292;28;20034;-85
2023/01/13 05:32:26;;;;;;;30.17;5.80;;;7.60;99.90;;;;;;4982021;28;20050;-83
2023/01/13 05:34:53;;;;;;;27.98;5.72;;;7.60;99.90;;;;;;4974801;28;20046;-82
2023/01/13 05:37:18;;;;;;;40.50;5.57;;;7.50;99.90;;;;;;4976119;28;20042;-83
2023/01/13 05:45:12;;;;;;;28.85;5.13;;;7.30;99.90;;;;;;4964207;28;20049;-83
2023/01/13 05:47:38;;;;;;;42.42;5.20;;;7.30;99.90;;;;;;4987030;28;20058;-82
2023/01/13 05:50:04;;;;;;;25.80;4.88;;;7.30;99.90;;;;;;4969809;28;20041;-82
2023/01/13 05:52:30;;;;;;;31.15;4.70;;;7.30;99.90;;;;;;4964656;28;20076;-82
2023/01/13 05:54:55;;;;;;;25.73;5.28;;;7.30;99.90;;;;;;4990467;28;20042;-83
2023/01/13 05:57:21;;;;;;;26.48;4.30;;;7.30;99.90;;;;;;4958014;28;20108;-85
2023/01/13 05:59:47;;;;;;;26.38;4.20;;;7.20;99.90;;;;;;4974379;28;20049;-82
2023/01/13 06:02:12;;;;;;;30.90;4.53;;;7.20;99.90;;;;;;4971689;28;20111;-86
2023/01/13 06:04:38;;;;;;;27.50;3.58;;;7.30;99.90;;;;;;4976786;28;20129;-83
2023/01/13 06:07:04;;;;;;;37.80;4.80;;;7.30;99.90;;;;;;4974312;28;20552;-84
2023/01/13 06:09:29;;;;;;;24.58;3.65;;;7.40;99.90;;;;;;4963401;28;20388;-86
2023/01/13 06:11:55;;;;;;;31.88;4.20;;;7.30;99.90;;;;;;4980122;28;20046;-84
2023/01/13 06:14:21;;;;;;;24.30;3.45;;;7.40;99.90;;;;;;4963742;28;20057;-83
2023/01/13 06:16:46;;;;;;;27.95;4.40;;;7.50;99.90;;;;;;4945060;28;20549;-85
2023/01/13 06:19:12;;;;;;;18.75;3.08;;;7.60;99.90;;;;;;4977004;28;20559;-86
2023/01/13 06:21:38;;;;;;;27.40;4.00;;;7.50;99.90;;;;;;4979545;28;20072;-85
2023/01/13 06:24:05;;;;;;;23.10;3.60;;;7.60;99.90;;;;;;4953657;28;20030;-85
2023/01/13 06:26:37;;;;;;;31.17;4.25;;;7.60;99.90;;;;;;4974739;28;20045;-84
2023/01/13 06:29:03;;;;;;;22.42;4.28;;;7.60;99.90;;;;;;4979500;28;20082;-83
2023/01/13 06:31:30;;;;;;;21.13;3.47;;;7.70;99.90;;;;;;4981211;28;20124;-85
2023/01/13 06:34:04;;;;;;;27.75;3.25;;;7.70;99.90;;;;;;4975546;28;20130;-84
2023/01/13 06:36:35;;;;;;;21.42;3.60;;;7.70;99.90;;;;;;4978009;28;20049;-84
2023/01/13 06:39:02;;;;;;;19.20;3.30;;;7.70;99.90;;;;;;4990083;28;20121;-86
2023/01/13 06:44:16;;;;;;;23.55;3.33;;;7.80;99.90;;;;;;4989535;28;20046;-84
2023/01/13 06:46:41;;;;;;;16.15;2.67;;;7.70;99.90;;;;;;4962192;28;20046;-85
2023/01/13 06:49:07;;;;;;;21.77;2.92;;;7.70;99.90;;;;;;4973702;28;20050;-84
2023/01/13 06:51:33;;;;;;;23.17;3.35;;;7.70;99.90;;;;;;4990547;28;20488;-84
2023/01/13 06:53:59;;;;;;;19.73;4.20;;;7.70;99.90;;;;;;4976584;28;20168;-85
2023/01/13 06:56:24;;;;;;;15.43;2.58;;;7.70;99.90;;;;;;4992002;28;20503;-84
2023/01/13 06:58:50;;;;;;;21.35;2.63;;;7.70;99.90;;;;;;4974083;28;20133;-85
2023/01/13 07:01:16;;;;;;;22.98;2.65;;;7.60;99.90;;;;;;5001605;28;20058;-84
2023/01/13 07:03:41;;;;;;;15.73;2.55;;;7.60;99.90;;;;;;4939601;28;20920;-84
2023/01/13 07:06:07;;;;;;;18.33;3.22;;;7.50;99.90;;;;;;4958183;28;20042;-86
2023/01/13 07:08:33;;;;;;;26.05;3.75;;;7.40;99.90;;;;;;4978904;28;20091;-89
2023/01/13 07:11:01;;;;;;;16.73;2.60;;;7.30;99.90;;;;;;4964477;28;20116;-85
2023/01/13 07:16:11;;;;;;;24.42;3.63;;;7.20;99.90;;;;;;4993347;28;20514;-85
2023/01/13 07:18:37;;;;;;;18.70;3.13;;;7.20;99.90;;;;;;4960778;28;20050;-81
2023/01/13 07:21:05;;;;;;;18.13;2.65;;;7.20;99.90;;;;;;4952905;28;20476;-83
2023/01/13 07:23:34;;;;;;;16.77;2.20;;;7.10;99.90;;;;;;4991982;28;20117;-80
2023/01/13 07:26:00;;;;;;;17.52;2.95;;;7.00;99.90;;;;;;4980703;28;20046;-79
2023/01/13 07:28:27;;;;;;;21.40;3.53;;;7.10;99.90;;;;;;5002400;28;20534;-85
2023/01/13 07:30:53;;;;;;;19.98;3.13;;;7.00;99.90;;;;;;4977922;28;20082;-78
2023/01/13 07:33:19;;;;;;;20.63;3.05;;;7.00;99.90;;;;;;4978037;28;20553;-77
2023/01/13 07:35:46;;;;;;;13.15;2.67;;;7.00;99.90;;;;;;4983678;28;20331;-85
2023/01/13 07:38:12;;;;;;;20.67;2.55;;;6.90;99.90;;;;;;4974343;28;20046;-84
2023/01/13 07:40:38;;;;;;;24.23;3.20;;;6.90;99.90;;;;;;4978427;28;20054;-85
2023/01/13 07:45:54;;;;;;;21.35;3.00;;;6.70;99.90;;;;;;4989693;28;20062;-85
2023/01/13 07:48:19;;;;;;;16.67;2.88;;;6.70;99.90;;;;;;4961127;28;20133;-85
2023/01/13 07:50:45;;;;;;;25.10;3.25;;;6.70;99.90;;;;;;4957705;28;20140;-85
2023/01/13 07:53:11;;;;;;;21.42;3.72;;;6.60;99.90;;;;;;4968239;28;20046;-86
2023/01/13 07:55:41;;;;;;;23.20;3.88;;;6.60;99.90;;;;;;4993766;28;20132;-84
2023/01/13 07:58:08;;;;;;;33.10;4.93;;;6.60;99.90;;;;;;4990031;28;20038;-84
2023/01/13 08:00:34;;;;;;;22.02;4.38;;;6.60;99.90;;;;;;4960991;28;20050;-86
2023/01/13 08:03:03;;;;;;;25.58;3.78;;;6.60;99.90;;;;;;4978435;28;20042;-85
2023/01/13 08:05:29;;;;;;;17.02;3.33;;;6.60;99.90;;;;;;4962213;28;20100;-88
2023/01/13 08:07:54;;;;;;;26.17;3.72;;;6.60;99.90;;;;;;4977200;28;21041;-87
2023/01/13 08:10:20;;;;;;;26.58;3.50;;;6.70;99.90;;;;;;4957840;28;20565;-85
2023/01/13 08:15:33;;;;;;;23.33;3.00;;;6.70;99.90;;;;;;4976949;28;20044;-88
2023/01/13 08:17:59;;;;;;;30.95;4.32;;;6.70;99.90;;;;;;4976505;28;20391;-87
2023/01/13 08:20:25;;;;;;;21.83;2.92;;;6.70;99.90;;;;;;4990303;28;20050;-86
2023/01/13 08:22:57;;;;;;;21.17;3.65;;;6.70;99.90;;;;;;4939351;28;20100;-85
2023/01/13 08:25:23;;;;;;;19.50;2.95;;;6.70;99.90;;;;;;4975467;28;20188;-87
2023/01/13 08:27:52;;;;;;;22.38;3.33;;;6.70;99.90;;;;;;4980638;28;20058;-85
2023/01/13 08:30:17;;;;;;;26.23;3.80;;;6.70;99.90;;;;;;4974486;28;20069;-84
2023/01/13 08:32:44;;;;;;;18.67;3.38;;;6.70;99.90;;;;;;4997824;28;20046;-86
2023/01/13 08:35:10;;;;;;;16.23;3.05;;;6.80;99.90;;;;;;4953466;28;20046;-85
2023/01/13 08:37:37;;;;;;;21.05;3.80;;;6.80;99.90;;;;;;4959816;28;20049;-85
2023/01/13 08:40:03;;;;;;;25.80;3.28;;;6.80;99.90;;;;;;4977852;28;20833;-85
2023/01/13 08:42:29;;;;;;;23.65;3.50;;;6.80;99.90;;;;;;4975684;28;20062;-86
2023/01/13 08:44:56;;;;;;;27.08;4.50;;;6.90;99.90;;;;;;4960227;28;20041;-85
2023/01/13 08:47:22;;;;;;;20.50;3.00;;;6.90;99.90;;;;;;4993122;28;20052;-84
2023/01/13 08:49:47;;;;;;;21.42;2.80;;;6.90;99.90;;;;;;4987980;28;20046;-86
2023/01/13 08:52:13;;;;;;;26.05;3.88;;;6.90;99.90;;;;;;4993429;28;20064;-85
2023/01/13 08:54:39;;;;;;;23.77;3.53;;;7.00;99.90;;;;;;4977448;28;20144;-84
2023/01/13 08:57:05;;;;;;;18.77;4.10;;;7.00;99.90;;;;;;4989317;28;20431;-85
2023/01/13 08:59:32;;;;;;;21.77;3.42;;;7.20;99.90;;;;;;4991469;28;20030;-84
2023/01/13 09:01:58;;;;;;;23.83;3.72;;;7.10;99.90;;;;;;4991244;28;20053;-84
2023/01/13 09:04:26;;;;;;;26.38;3.90;;;7.00;99.90;;;;;;4959770;28;20042;-85
2023/01/13 09:06:53;;;;;;;21.48;3.83;;;7.10;99.90;;;;;;4977280;28;20050;-84
2023/01/13 09:09:20;;;;;;;29.05;4.53;;;7.10;99.90;;;;;;4961314;28;20045;-86
2023/01/13 09:14:37;;;;;;;21.88;4.53;;;7.10;99.90;;;;;;4989208;28;20142;-86
2023/01/13 09:17:03;;;;;;;19.85;3.08;;;7.20;99.90;;;;;;4959991;28;20057;-87
2023/01/13 09:19:35;;;;;;;27.52;4.35;;;7.20;99.90;;;;;;4940411;28;20046;-86
2023/01/13 09:22:01;;;;;;;25.85;4.70;;;7.20;99.90;;;;;;4975104;28;20121;-82
2023/01/13 09:24:45;;;;;;;27.85;4.38;;;7.30;99.90;;;;;;4970320;28;20624;-85
2023/01/13 09:27:22;;;;;;;25.00;3.25;;;7.10;99.90;;;;;;4987117;28;20049;-84
2023/01/13 09:29:58;;;;;;;23.48;3.47;;;7.00;99.90;;;;;;4966000;28;20469;-84
2023/01/13 09:35:08;;;;;;;;;;;;;;;;;;;;;
2023/01/13 09:36:03;;;;;;;26.02;5.32;;;6.90;99.90;;;;;;4932884;28;20116;-85
2023/01/13 09:38:41;;;;;;;33.15;4.55;;;6.80;99.90;;;;;;4976626;28;20101;-84
2023/01/13 09:44:41;;;;;;;34.28;5.55;;;6.80;99.90;;;;;;4986468;28;20056;-88
2023/01/13 09:47:28;;;;;;;;;;;;;;;;;;;;;
2023/01/13 09:50:37;;;;;;;35.13;5.22;;;6.80;99.90;;;;;;4991895;28;20125;-88
2023/01/13 09:53:35;;;;;;;25.70;4.55;;;6.80;99.90;;;;;;4982369;28;20065;-84
2023/01/13 09:56:32;;;;;;;;;;;;;;;;;;;;;
2023/01/13 09:59:17;;;;;;;;;;;;;;;;;;;;;
2023/01/13 10:02:39;;;;;;;33.30;4.80;;;6.80;99.90;;;;;;4984607;28;20049;-85
2023/01/13 10:05:55;;;;;;;;;;;;;;;;;;;;;
2023/01/13 10:08:41;;;;;;;32.17;4.53;;;6.90;99.90;;;;;;4987377;28;20086;-84
2023/01/13 10:14:50;;;;;;;25.70;3.17;;;6.80;99.90;;;;;;4989949;28;20049;-87
2023/01/13 10:17:23;;;;;;;32.25;4.30;;;6.80;99.90;;;;;;4969102;28;20077;-83
2023/01/13 10:19:54;;;;;;;34.47;4.55;;;6.90;99.90;;;;;;4976601;28;20046;-86
2023/01/13 10:23:02;;;;;;;31.35;4.65;;;6.90;99.90;;;;;;4967132;28;20049;-85
2023/01/13 10:26:13;;;;;;;38.00;4.53;;;6.90;99.90;;;;;;4988898;28;20056;-86
2023/01/13 10:28:44;;;;;;;21.17;3.35;;;6.90;99.90;;;;;;4985517;28;20112;-84
2023/01/13 10:31:13;;;;;;;39.60;5.20;;;6.90;99.90;;;;;;4973307;28;20060;-87
2023/01/13 10:34:05;;;;;;;32.70;5.55;;;6.90;99.90;;;;;;4963948;28;20046;-85
2023/01/13 10:37:26;;;;;;;55.63;5.60;;;7.00;99.90;;;;;;4970497;28;20093;-85
2023/01/13 10:40:14;;;;;;;;;;;;;;;;;;;;;
2023/01/13 10:42:47;;;;;;;36.30;5.90;;;7.00;99.90;;;;;;4990960;28;20108;-85
2023/01/13 10:45:33;;;;;;;32.95;4.97;;;7.00;99.90;;;;;;4980122;28;20053;-85
2023/01/13 10:48:09;;;;;;;39.42;3.85;;;7.00;99.90;;;;;;4990350;28;20065;-84
2023/01/13 10:51:01;;;;;;;32.35;5.70;;;7.00;99.90;;;;;;4987346;28;20046;-87
2023/01/13 10:53:53;;;;;;;;;;;;;;;;;;;;;
2023/01/13 10:56:33;;;;;;;34.17;4.50;;;7.20;99.90;;;;;;4994042;28;20431;-85
2023/01/13 10:59:31;;;;;;;33.15;4.75;;;7.10;99.90;;;;;;4995314;28;20050;-86
2023/01/13 11:02:13;;;;;;;;;;;;;;;;;;;;;
2023/01/13 11:05:02;;;;;;;;;;;;;;;;;;;;;
2023/01/13 11:07:51;;;;;;;35.83;4.03;;;7.10;99.90;;;;;;4991270;28;20137;-86
2023/01/13 11:10:30;;;;;;;30.27;4.18;;;7.10;99.90;;;;;;4970407;28;20087;-86
2023/01/13 11:13:20;;;;;;;27.38;4.35;;;7.00;99.90;;;;;;4977573;28;20054;-85
2023/01/13 11:16:03;;;;;;;30.48;4.03;;;7.10;99.90;;;;;;4978173;28;20057;-85
2023/01/13 11:19:01;;;;;;;29.13;4.55;;;7.00;99.90;;;;;;4978316;28;20196;-85
2023/01/13 11:21:56;;;;;;;33.72;4.25;;;7.00;99.90;;;;;;4969956;28;20057;-85
2023/01/13 11:24:36;;;;;;;26.50;3.47;;;7.10;99.90;;;;;;4974770;28;20078;-84
2023/01/13 11:27:20;;;;;;;28.90;3.60;;;7.20;99.90;;;;;;4984962;28;20050;-84
2023/01/13 11:30:08;;;;;;;30.77;4.47;;;7.20;99.90;;;;;;4974606;28;20047;-84
2023/01/13 11:32:45;;;;;;;23.88;3.33;;;7.10;99.90;;;;;;4979015;28;20050;-85
2023/01/13 11:35:24;;;;;;;31.13;4.60;;;7.10;99.90;;;;;;4991437;28;20081;-84
2023/01/13 11:38:25;;;;;;;23.98;3.58;;;7.20;99.90;;;;;;4976078;28;20050;-88
2023/01/13 11:41:22;;;;;;;23.88;3.53;;;7.20;99.90;;;;;;4971604;28;20582;-88
2023/01/13 11:43:59;;;;;;;26.95;4.00;;;7.10;99.90;;;;;;4973540;28;20093;-85
2023/01/13 11:46:34;;;;;;;23.73;4.93;;;7.10;99.90;;;;;;4975870;28;20058;-84
2023/01/13 11:49:03;;;;;;;31.83;4.82;;;7.20;99.90;;;;;;4993728;28;20050;-85
2023/01/13 11:51:51;;;;;;;32.40;4.30;;;7.20;99.90;;;;;;4966862;28;20048;-83
2023/01/13 11:54:38;;;;;;;;;;;;;;;;;;;;;
2023/01/13 11:57:22;;;;;;;17.58;3.42;;;7.20;99.90;;;;;;4984808;28;20054;-85
2023/01/13 12:00:16;;;;;;;26.77;3.33;;;7.20;99.90;;;;;;4989224;28;20043;-85
2023/01/13 12:03:22;;;;;;;32.33;3.78;;;7.20;99.90;;;;;;4947067;28;20046;-86
2023/01/13 12:06:09;;;;;;;19.10;3.10;;;7.20;99.90;;;;;;4973949;28;20158;-83
2023/01/13 12:09:02;;;;;;;24.88;5.28;;;7.30;99.90;;;;;;4967873;28;20046;-84
2023/01/13 12:12:21;;;;;;;24.02;5.13;;;7.30;99.90;;;;;;4952596;28;20055;-84
2023/01/13 12:15:07;;;;;;;33.83;5.03;;;7.30;99.90;;;;;;4968971;28;20060;-84
2023/01/13 12:17:56;;;;;;;24.90;3.58;;;7.40;99.90;;;;;;4960776;28;20042;-83
2023/01/13 12:20:32;;;;;;;25.38;3.22;;;7.40;99.90;;;;;;4959797;28;20078;-84
2023/01/13 12:23:02;;;;;;;18.05;3.85;;;7.40;99.90;;;;;;4959818;28;20124;-85
2023/01/13 12:25:55;;;;;;;27.00;4.22;;;7.40;99.90;;;;;;4959961;28;20456;-86
2023/01/13 12:32:05;;;;;;;17.92;3.38;;;7.40;99.90;;;;;;4968901;28;20050;-84
2023/01/13 12:35:13;;;;;;;16.67;3.17;;;7.40;99.90;;;;;;4947766;28;20057;-84
2023/01/13 12:37:47;;;;;;;;;;;7.40;99.90;;;;;;4965157;28;20054;-84
2023/01/13 12:40:17;;;;;;;21.98;3.50;;;7.40;99.90;;;;;;4973104;28;19922;-84
2023/01/13 12:49:24;;;;;;;16.25;3.38;;;7.40;99.90;;;;;;4961644;28;20054;-86
2023/01/13 12:51:55;;;;;;;23.80;3.78;;;7.30;99.90;;;;;;4961426;28;20045;-84
2023/01/13 12:54:44;;;;;;;20.38;3.63;;;7.30;99.90;;;;;;4958165;28;20100;-83
2023/01/13 12:57:38;;;;;;;13.82;3.50;;;7.30;99.90;;;;;;4959870;28;20657;-85
2023/01/13 13:00:22;;;;;;;14.60;2.65;;;7.40;99.90;;;;;;4948515;28;20465;-84
2023/01/13 13:03:12;;;;;;;15.38;2.03;;;7.30;99.90;;;;;;4983998;28;20125;-83
2023/01/13 13:05:56;;;;;;;21.55;3.00;;;7.40;99.90;;;;;;4971905;28;20678;-84
2023/01/13 13:08:42;;;;;;;15.00;2.95;;;7.40;99.90;;;;;;4964330;28;20082;-84
2023/01/13 13:14:34;;;;;;;15.90;2.33;;;7.40;99.90;;;;;;4990130;28;20054;-84
2023/01/13 13:17:24;;;;;;;15.10;2.22;;;7.40;99.90;;;;;;4972854;28;20047;-84
2023/01/13 13:20:04;;;;;;;18.23;2.88;;;7.40;99.90;;;;;;4972496;28;20484;-83
2023/01/13 13:22:43;;;;;;;17.20;2.25;;;7.40;99.90;;;;;;4972447;28;20145;-84
2023/01/13 13:25:35;;;;;;;16.45;3.40;;;7.30;99.90;;;;;;4974634;28;20124;-84
2023/01/13 13:28:16;;;;;;;12.57;2.33;;;7.40;99.90;;;;;;4954083;28;20058;-83
2023/01/13 13:31:02;;;;;;;18.13;3.17;;;7.40;99.90;;;;;;4969971;28;20057;-86
2023/01/13 13:33:28;;;;;;;20.75;4.40;;;7.40;99.90;;;;;;4971750;28;20496;-81
2023/01/13 13:36:12;;;;;;;12.07;1.92;;;7.40;99.90;;;;;;4982621;28;20039;-82
2023/01/13 13:47:21;;;;;;;18.48;3.20;;;7.60;99.90;;;;;;4988498;28;20455;-82
2023/01/13 13:49:54;;;;;;;10.90;2.35;;;7.60;99.90;;;;;;4942542;28;20046;-84
2023/01/13 13:52:37;;;;;;;16.75;2.70;;;7.60;99.90;;;;;;4974377;28;20504;-83
2023/01/13 13:55:18;;;;;;;13.85;1.98;;;7.70;99.90;;;;;;4974350;28;20053;-84
2023/01/13 13:57:47;;;;;;;15.30;3.13;;;7.70;99.90;;;;;;4974424;28;20057;-84
2023/01/13 14:00:34;;;;;;;15.15;2.97;;;7.70;99.90;;;;;;4990908;28;20443;-84
2023/01/13 14:03:04;;;;;;;17.88;2.88;;;7.70;99.90;;;;;;4971225;28;20037;-84
2023/01/13 14:05:35;;;;;;;18.30;2.63;;;7.70;99.90;;;;;;5008727;28;20056;-84
2023/01/13 14:08:02;;;;;;;8.32;1.88;;;7.70;99.90;;;;;;4965961;28;20380;-84
2023/01/13 14:10:39;;;;;;;11.90;1.90;;;7.80;99.90;;;;;;4975084;28;20058;-85
2023/01/13 14:13:23;;;;;;;14.32;2.95;;;7.80;99.90;;;;;;4990984;28;20126;-84
2023/01/13 14:15:57;;;;;;;15.55;2.42;;;7.70;99.90;;;;;;4973188;28;20046;-84
2023/01/13 14:18:24;;;;;;;12.20;2.10;;;7.70;99.90;;;;;;4978635;28;20492;-84
2023/01/13 14:21:02;;;;;;;15.10;2.05;;;7.70;99.90;;;;;;4979000;28;20050;-84
2023/01/13 14:23:32;;;;;;;7.50;1.83;;;7.70;99.90;;;;;;4979280;28;20057;-85
2023/01/13 14:26:06;;;;;;;12.60;2.30;;;7.80;99.90;;;;;;4979601;28;20057;-86
2023/01/13 14:28:36;;;;;;;10.45;1.75;;;7.80;99.90;;;;;;4977695;28;20138;-83
2023/01/13 14:31:04;;;;;;;17.33;1.98;;;7.70;99.90;;;;;;4994977;28;20050;-83
2023/01/13 14:33:41;;;;;;;15.20;2.47;;;7.60;99.90;;;;;;4981562;28;20064;-84
2023/01/13 14:36:46;;;;;;;10.25;1.88;;;7.50;99.90;;;;;;4973517;28;20054;-83
2023/01/13 14:39:13;;;;;;;16.92;3.45;;;7.50;99.90;;;;;;4913449;29;20044;-88
2023/01/13 14:41:42;;;;;;;12.05;2.35;;;7.40;99.90;;;;;;4953521;28;20054;-82
2023/01/13 14:44:14;;;;;;;9.82;2.10;;;7.50;99.90;;;;;;4989183;28;20555;-82
2023/01/13 14:46:42;;;;;;;15.05;2.78;;;7.50;99.90;;;;;;4997554;28;20184;-83
2023/01/13 14:49:35;;;;;;;14.27;2.10;;;7.50;99.90;;;;;;4988241;28;20054;-84